sensor_id;sensor_type;location;lat;lon;timestamp;temperature;humidity
38428;DHT22;24211;49.980;19.776;2023-03-05T00:01:27;4.10;99.90
38428;DHT22;24211;49.980;19.776;2023-03-05T00:03:59;4.10;99.90
38428;DHT22;24211;49.980;19.776;2023-03-05T00:06:32;4.10;99.90
38428;DHT22;24211;49.980;19.776;2023-03-05T00:08:59;4.10;99.90
38428;DHT22;24211;49.980;19.776;2023-03-05T00:11:29;4.20;99.90
38428;DHT22;24211;49.980;19.776;2023-03-05T00:14:00;4.10;99.90
38428;DHT22;24211;49.980;19.776;2023-03-05T00:16:30;4.10;99.90
38428;DHT22;24211;49.980;19.776;2023-03-05T00:18:59;4.10;99.90
38428;DHT22;24211;49.980;19.776;2023-03-05T00:21:31;4.10;99.90
38428;DHT22;24211;49.980;19.776;2023-03-05T00:24:04;4.20;99.90
38428;DHT22;24211;49.980;19.776;2023-03-05T00:26:38;4.10;99.90
38428;DHT22;24211;49.980;19.776;2023-03-05T00:29:07;4.10;99.90
38428;DHT22;24211;49.980;19.776;2023-03-05T00:31:36;4.10;99.90
38428;DHT22;24211;49.980;19.776;2023-03-05T00:34:07;4.10;99.90
38428;DHT22;24211;49.980;19.776;2023-03-05T00:36:42;4.10;99.90
38428;DHT22;24211;49.980;19.776;2023-03-05T00:39:11;4.10;99.90
38428;DHT22;24211;49.980;19.776;2023-03-05T00:41:40;4.10;99.90
38428;DHT22;24211;49.980;19.776;2023-03-05T00:44:07;4.10;99.90
38428;DHT22;24211;49.980;19.776;2023-03-05T00:46:34;4.10;99.90
38428;DHT22;24211;49.980;19.776;2023-03-05T00:49:02;4.10;99.90
38428;DHT22;24211;49.980;19.776;2023-03-05T00:51:30;4.10;99.90
38428;DHT22;24211;49.980;19.776;2023-03-05T00:53:57;4.10;99.90
38428;DHT22;24211;49.980;19.776;2023-03-05T00:56:25;4.10;99.90
38428;DHT22;24211;49.980;19.776;2023-03-05T00:58:52;4.10;99.90
38428;DHT22;24211;49.980;19.776;2023-03-05T01:01:20;4.10;99.90
38428;DHT22;24211;49.980;19.776;2023-03-05T01:03:47;4.10;99.90
38428;DHT22;24211;49.980;19.776;2023-03-05T01:06:15;4.00;99.90
38428;DHT22;24211;49.980;19.776;2023-03-05T01:08:43;4.00;99.90
38428;DHT22;24211;49.980;19.776;2023-03-05T01:11:11;4.00;99.90
38428;DHT22;24211;49.980;19.776;2023-03-05T01:13:39;4.00;99.90
38428;DHT22;24211;49.980;19.776;2023-03-05T01:16:06;4.00;99.90
38428;DHT22;24211;49.980;19.776;2023-03-05T01:18:34;4.00;99.90
38428;DHT22;24211;49.980;19.776;2023-03-05T01:21:04;4.10;99.90
38428;DHT22;24211;49.980;19.776;2023-03-05T01:23:31;4.10;99.90
38428;DHT22;24211;49.980;19.776;2023-03-05T01:26:00;4.10;99.90
38428;DHT22;24211;49.980;19.776;2023-03-05T01:28:28;4.00;99.90
38428;DHT22;24211;49.980;19.776;2023-03-05T01:30:55;4.00;99.90
38428;DHT22;24211;49.980;19.776;2023-03-05T01:33:22;4.00;99.90
38428;DHT22;24211;49.980;19.776;2023-03-05T01:35:50;4.00;99.90
38428;DHT22;24211;49.980;19.776;2023-03-05T01:38:18;4.00;99.90
38428;DHT22;24211;49.980;19.776;2023-03-05T01:40:45;4.00;99.90
38428;DHT22;24211;49.980;19.776;2023-03-05T01:48:39;4.00;99.90
38428;DHT22;24211;49.980;19.776;2023-03-05T01:51:10;4.00;99.90
38428;DHT22;24211;49.980;19.776;2023-03-05T01:53:38;4.00;99.90
38428;DHT22;24211;49.980;19.776;2023-03-05T01:56:06;4.00;99.90
38428;DHT22;24211;49.980;19.776;2023-03-05T01:58:33;3.90;99.90
38428;DHT22;24211;49.980;19.776;2023-03-05T02:01:03;3.90;99.90
38428;DHT22;24211;49.980;19.776;2023-03-05T02:03:31;3.90;99.90
38428;DHT22;24211;49.980;19.776;2023-03-05T02:06:02;3.90;99.90
38428;DHT22;24211;49.980;19.776;2023-03-05T02:08:30;3.80;99.90
38428;DHT22;24211;49.980;19.776;2023-03-05T02:10:57;3.90;99.90
38428;DHT22;24211;49.980;19.776;2023-03-05T02:13:30;3.90;99.90
38428;DHT22;24211;49.980;19.776;2023-03-05T02:16:01;3.80;99.90
38428;DHT22;24211;49.980;19.776;2023-03-05T02:18:29;3.80;99.90
38428;DHT22;24211;49.980;19.776;2023-03-05T02:23:30;3.80;99.90
38428;DHT22;24211;49.980;19.776;2023-03-05T02:26:09;3.80;99.90
38428;DHT22;24211;49.980;19.776;2023-03-05T02:28:43;3.80;99.90
38428;DHT22;24211;49.980;19.776;2023-03-05T02:31:20;3.70;99.90
38428;DHT22;24211;49.980;19.776;2023-03-05T02:33:50;3.70;99.90
38428;DHT22;24211;49.980;19.776;2023-03-05T02:36:20;3.70;99.90
38428;DHT22;24211;49.980;19.776;2023-03-05T02:38:48;3.80;99.90
38428;DHT22;24211;49.980;19.776;2023-03-05T02:41:16;3.80;99.90
38428;DHT22;24211;49.980;19.776;2023-03-05T02:43:43;3.70;99.90
38428;DHT22;24211;49.980;19.776;2023-03-05T02:46:11;3.80;99.90
38428;DHT22;24211;49.980;19.776;2023-03-05T02:48:38;3.80;99.90
38428;DHT22;24211;49.980;19.776;2023-03-05T02:51:06;3.80;99.90
38428;DHT22;24211;49.980;19.776;2023-03-05T02:53:34;3.70;99.90
38428;DHT22;24211;49.980;19.776;2023-03-05T02:56:02;3.70;99.90
38428;DHT22;24211;49.980;19.776;2023-03-05T02:58:33;3.80;99.90
38428;DHT22;24211;49.980;19.776;2023-03-05T03:01:00;3.70;99.90
38428;DHT22;24211;49.980;19.776;2023-03-05T03:03:28;3.70;99.90
38428;DHT22;24211;49.980;19.776;2023-03-05T03:05:56;3.80;99.90
38428;DHT22;24211;49.980;19.776;2023-03-05T03:08:23;3.80;99.90
38428;DHT22;24211;49.980;19.776;2023-03-05T03:10:51;3.80;99.90
38428;DHT22;24211;49.980;19.776;2023-03-05T03:13:18;3.80;99.90
38428;DHT22;24211;49.980;19.776;2023-03-05T03:15:45;3.80;99.90
38428;DHT22;24211;49.980;19.776;2023-03-05T03:18:12;3.80;99.90
38428;DHT22;24211;49.980;19.776;2023-03-05T03:20:39;3.80;99.90
38428;DHT22;24211;49.980;19.776;2023-03-05T03:23:06;3.80;99.90
38428;DHT22;24211;49.980;19.776;2023-03-05T03:25:34;3.80;99.90
38428;DHT22;24211;49.980;19.776;2023-03-05T03:28:01;3.80;99.90
38428;DHT22;24211;49.980;19.776;2023-03-05T03:30:29;3.80;99.90
38428;DHT22;24211;49.980;19.776;2023-03-05T03:32:56;3.80;99.90
38428;DHT22;24211;49.980;19.776;2023-03-05T03:35:23;3.80;99.90
38428;DHT22;24211;49.980;19.776;2023-03-05T03:37:50;3.80;99.90
38428;DHT22;24211;49.980;19.776;2023-03-05T03:40:18;3.80;99.90
38428;DHT22;24211;49.980;19.776;2023-03-05T03:42:45;3.80;99.90
38428;DHT22;24211;49.980;19.776;2023-03-05T03:45:12;3.80;99.90
38428;DHT22;24211;49.980;19.776;2023-03-05T03:47:40;3.80;99.90
38428;DHT22;24211;49.980;19.776;2023-03-05T03:50:08;3.80;99.90
38428;DHT22;24211;49.980;19.776;2023-03-05T03:52:36;3.80;99.90
38428;DHT22;24211;49.980;19.776;2023-03-05T03:55:03;3.80;99.90
38428;DHT22;24211;49.980;19.776;2023-03-05T03:57:31;3.80;99.90
38428;DHT22;24211;49.980;19.776;2023-03-05T03:59:59;3.70;99.90
38428;DHT22;24211;49.980;19.776;2023-03-05T04:02:27;3.80;99.90
38428;DHT22;24211;49.980;19.776;2023-03-05T04:04:54;3.80;99.90
38428;DHT22;24211;49.980;19.776;2023-03-05T04:07:21;3.80;99.90
38428;DHT22;24211;49.980;19.776;2023-03-05T04:09:48;3.80;99.90
38428;DHT22;24211;49.980;19.776;2023-03-05T04:12:16;3.80;99.90
38428;DHT22;24211;49.980;19.776;2023-03-05T04:14:45;3.80;99.90
38428;DHT22;24211;49.980;19.776;2023-03-05T04:17:14;3.80;99.90
38428;DHT22;24211;49.980;19.776;2023-03-05T04:19:43;3.70;99.90
38428;DHT22;24211;49.980;19.776;2023-03-05T04:22:15;3.80;99.90
38428;DHT22;24211;49.980;19.776;2023-03-05T04:24:43;3.80;99.90
38428;DHT22;24211;49.980;19.776;2023-03-05T04:27:10;3.80;99.90
38428;DHT22;24211;49.980;19.776;2023-03-05T04:29:38;3.80;99.90
38428;DHT22;24211;49.980;19.776;2023-03-05T04:32:05;3.70;99.90
38428;DHT22;24211;49.980;19.776;2023-03-05T04:34:32;3.80;99.90
38428;DHT22;24211;49.980;19.776;2023-03-05T04:37:00;3.80;99.90
38428;DHT22;24211;49.980;19.776;2023-03-05T04:39:27;3.80;99.90
38428;DHT22;24211;49.980;19.776;2023-03-05T04:41:54;3.80;99.90
38428;DHT22;24211;49.980;19.776;2023-03-05T04:44:21;3.80;99.90
38428;DHT22;24211;49.980;19.776;2023-03-05T04:46:51;3.80;99.90
38428;DHT22;24211;49.980;19.776;2023-03-05T04:49:19;3.70;99.90
38428;DHT22;24211;49.980;19.776;2023-03-05T04:51:46;3.70;99.90
38428;DHT22;24211;49.980;19.776;2023-03-05T04:54:13;3.70;99.90
38428;DHT22;24211;49.980;19.776;2023-03-05T04:56:40;3.70;99.90
38428;DHT22;24211;49.980;19.776;2023-03-05T04:59:07;3.70;99.90
38428;DHT22;24211;49.980;19.776;2023-03-05T05:01:34;3.70;99.90
38428;DHT22;24211;49.980;19.776;2023-03-05T05:04:01;3.70;99.90
38428;DHT22;24211;49.980;19.776;2023-03-05T05:06:29;3.70;99.90
38428;DHT22;24211;49.980;19.776;2023-03-05T05:08:56;3.70;99.90
38428;DHT22;24211;49.980;19.776;2023-03-05T05:11:23;3.70;99.90
38428;DHT22;24211;49.980;19.776;2023-03-05T05:13:51;3.60;99.90
38428;DHT22;24211;49.980;19.776;2023-03-05T05:16:18;3.70;99.90
38428;DHT22;24211;49.980;19.776;2023-03-05T05:18:45;3.70;99.90
38428;DHT22;24211;49.980;19.776;2023-03-05T05:21:13;3.60;99.90
38428;DHT22;24211;49.980;19.776;2023-03-05T05:23:41;3.60;99.90
38428;DHT22;24211;49.980;19.776;2023-03-05T05:26:08;3.50;99.90
38428;DHT22;24211;49.980;19.776;2023-03-05T05:28:41;3.50;99.90
38428;DHT22;24211;49.980;19.776;2023-03-05T05:31:11;3.50;99.90
38428;DHT22;24211;49.980;19.776;2023-03-05T05:33:40;3.50;99.90
38428;DHT22;24211;49.980;19.776;2023-03-05T05:36:11;3.50;99.90
38428;DHT22;24211;49.980;19.776;2023-03-05T05:38:41;3.50;99.90
38428;DHT22;24211;49.980;19.776;2023-03-05T05:41:10;3.60;99.90
38428;DHT22;24211;49.980;19.776;2023-03-05T05:43:40;3.60;99.90
38428;DHT22;24211;49.980;19.776;2023-03-05T05:46:11;3.50;99.90
38428;DHT22;24211;49.980;19.776;2023-03-05T05:48:41;3.50;99.90
38428;DHT22;24211;49.980;19.776;2023-03-05T05:51:14;3.50;99.90
38428;DHT22;24211;49.980;19.776;2023-03-05T05:53:44;3.50;99.90
38428;DHT22;24211;49.980;19.776;2023-03-05T05:56:13;3.50;99.90
38428;DHT22;24211;49.980;19.776;2023-03-05T05:58:44;3.40;99.90
38428;DHT22;24211;49.980;19.776;2023-03-05T06:01:16;3.30;99.90
38428;DHT22;24211;49.980;19.776;2023-03-05T06:03:56;3.30;99.90
38428;DHT22;24211;49.980;19.776;2023-03-05T06:06:25;3.20;99.90
38428;DHT22;24211;49.980;19.776;2023-03-05T06:08:53;3.20;99.90
38428;DHT22;24211;49.980;19.776;2023-03-05T06:11:21;3.20;99.90
38428;DHT22;24211;49.980;19.776;2023-03-05T06:13:49;3.10;99.90
38428;DHT22;24211;49.980;19.776;2023-03-05T06:16:19;3.10;99.90
38428;DHT22;24211;49.980;19.776;2023-03-05T06:18:48;3.10;99.90
38428;DHT22;24211;49.980;19.776;2023-03-05T06:21:18;3.00;99.90
38428;DHT22;24211;49.980;19.776;2023-03-05T06:23:48;3.00;99.90
38428;DHT22;24211;49.980;19.776;2023-03-05T06:26:18;3.10;99.90
38428;DHT22;24211;49.980;19.776;2023-03-05T06:28:48;3.10;99.90
38428;DHT22;24211;49.980;19.776;2023-03-05T06:31:17;3.10;99.90
38428;DHT22;24211;49.980;19.776;2023-03-05T06:33:48;3.10;99.90
38428;DHT22;24211;49.980;19.776;2023-03-05T06:36:17;3.00;99.90
38428;DHT22;24211;49.980;19.776;2023-03-05T06:38:46;3.10;99.90
38428;DHT22;24211;49.980;19.776;2023-03-05T06:41:17;3.10;99.90
38428;DHT22;24211;49.980;19.776;2023-03-05T06:43:47;3.10;99.90
38428;DHT22;24211;49.980;19.776;2023-03-05T06:46:26;3.20;99.90
38428;DHT22;24211;49.980;19.776;2023-03-05T06:48:59;3.20;99.90
38428;DHT22;24211;49.980;19.776;2023-03-05T06:51:31;3.30;99.90
38428;DHT22;24211;49.980;19.776;2023-03-05T06:54:02;3.30;99.90
38428;DHT22;24211;49.980;19.776;2023-03-05T06:56:31;3.30;99.90
38428;DHT22;24211;49.980;19.776;2023-03-05T06:58:58;3.30;99.90
38428;DHT22;24211;49.980;19.776;2023-03-05T07:01:25;3.30;99.90
38428;DHT22;24211;49.980;19.776;2023-03-05T07:03:54;3.40;99.90
38428;DHT22;24211;49.980;19.776;2023-03-05T07:06:21;3.30;99.90
38428;DHT22;24211;49.980;19.776;2023-03-05T07:08:49;3.40;99.90
38428;DHT22;24211;49.980;19.776;2023-03-05T07:11:19;3.40;99.90
38428;DHT22;24211;49.980;19.776;2023-03-05T07:13:47;3.40;99.90
38428;DHT22;24211;49.980;19.776;2023-03-05T07:16:26;3.40;99.90
38428;DHT22;24211;49.980;19.776;2023-03-05T07:18:56;3.30;99.90
38428;DHT22;24211;49.980;19.776;2023-03-05T07:21:27;3.30;99.90
38428;DHT22;24211;49.980;19.776;2023-03-05T07:23:59;3.30;99.90
38428;DHT22;24211;49.980;19.776;2023-03-05T07:26:31;3.30;99.90
38428;DHT22;24211;49.980;19.776;2023-03-05T07:29:00;3.30;99.90
38428;DHT22;24211;49.980;19.776;2023-03-05T07:31:27;3.40;99.90
38428;DHT22;24211;49.980;19.776;2023-03-05T07:33:59;3.40;99.90
38428;DHT22;24211;49.980;19.776;2023-03-05T07:36:29;3.40;99.90
38428;DHT22;24211;49.980;19.776;2023-03-05T07:38:57;3.40;99.90
38428;DHT22;24211;49.980;19.776;2023-03-05T07:41:24;3.40;99.90
38428;DHT22;24211;49.980;19.776;2023-03-05T07:43:52;3.40;99.90
38428;DHT22;24211;49.980;19.776;2023-03-05T07:46:24;3.40;99.90
38428;DHT22;24211;49.980;19.776;2023-03-05T07:48:56;3.40;99.90
38428;DHT22;24211;49.980;19.776;2023-03-05T07:51:24;3.30;99.90
38428;DHT22;24211;49.980;19.776;2023-03-05T07:53:54;3.30;99.90
38428;DHT22;24211;49.980;19.776;2023-03-05T07:56:27;3.30;99.90
38428;DHT22;24211;49.980;19.776;2023-03-05T07:59:04;3.40;99.90
38428;DHT22;24211;49.980;19.776;2023-03-05T08:01:33;3.30;99.90
38428;DHT22;24211;49.980;19.776;2023-03-05T08:04:03;3.40;99.90
38428;DHT22;24211;49.980;19.776;2023-03-05T08:06:31;3.40;99.90
38428;DHT22;24211;49.980;19.776;2023-03-05T08:08:59;3.30;99.90
38428;DHT22;24211;49.980;19.776;2023-03-05T08:11:29;3.40;99.90
38428;DHT22;24211;49.980;19.776;2023-03-05T08:13:56;3.40;99.90
38428;DHT22;24211;49.980;19.776;2023-03-05T08:16:25;3.40;99.90
38428;DHT22;24211;49.980;19.776;2023-03-05T08:18:54;3.40;99.90
38428;DHT22;24211;49.980;19.776;2023-03-05T08:21:26;3.40;99.90
38428;DHT22;24211;49.980;19.776;2023-03-05T08:24:00;3.40;99.90
38428;DHT22;24211;49.980;19.776;2023-03-05T08:26:31;3.40;99.90
38428;DHT22;24211;49.980;19.776;2023-03-05T08:29:00;3.30;99.90
38428;DHT22;24211;49.980;19.776;2023-03-05T08:31:29;3.30;99.90
38428;DHT22;24211;49.980;19.776;2023-03-05T08:33:59;3.20;99.90
38428;DHT22;24211;49.980;19.776;2023-03-05T08:36:29;3.20;99.90
38428;DHT22;24211;49.980;19.776;2023-03-05T08:38:57;3.30;99.90
38428;DHT22;24211;49.980;19.776;2023-03-05T08:41:25;3.30;99.90
38428;DHT22;24211;49.980;19.776;2023-03-05T08:43:52;3.30;99.90
38428;DHT22;24211;49.980;19.776;2023-03-05T08:46:20;3.30;99.90
38428;DHT22;24211;49.980;19.776;2023-03-05T08:48:47;3.40;99.90
38428;DHT22;24211;49.980;19.776;2023-03-05T08:51:17;3.40;99.90
38428;DHT22;24211;49.980;19.776;2023-03-05T08:53:46;3.50;99.90
38428;DHT22;24211;49.980;19.776;2023-03-05T08:56:13;3.50;99.90
38428;DHT22;24211;49.980;19.776;2023-03-05T08:58:41;3.50;99.90
38428;DHT22;24211;49.980;19.776;2023-03-05T09:01:09;3.50;99.90
38428;DHT22;24211;49.980;19.776;2023-03-05T09:03:38;3.60;99.90
38428;DHT22;24211;49.980;19.776;2023-03-05T09:06:08;3.60;99.90
38428;DHT22;24211;49.980;19.776;2023-03-05T09:08:38;3.70;99.90
38428;DHT22;24211;49.980;19.776;2023-03-05T09:11:07;3.80;99.90
38428;DHT22;24211;49.980;19.776;2023-03-05T09:13:38;3.80;99.90
38428;DHT22;24211;49.980;19.776;2023-03-05T09:16:07;3.80;99.90
38428;DHT22;24211;49.980;19.776;2023-03-05T09:18:38;3.90;99.90
38428;DHT22;24211;49.980;19.776;2023-03-05T09:21:09;3.90;99.90
38428;DHT22;24211;49.980;19.776;2023-03-05T09:23:39;4.00;99.90
38428;DHT22;24211;49.980;19.776;2023-03-05T09:26:08;4.00;99.90
38428;DHT22;24211;49.980;19.776;2023-03-05T09:28:39;4.10;99.90
38428;DHT22;24211;49.980;19.776;2023-03-05T09:31:08;4.10;99.90
38428;DHT22;24211;49.980;19.776;2023-03-05T09:33:36;4.10;99.90
38428;DHT22;24211;49.980;19.776;2023-03-05T09:36:12;4.20;99.90
38428;DHT22;24211;49.980;19.776;2023-03-05T09:38:55;4.20;99.90
38428;DHT22;24211;49.980;19.776;2023-03-05T09:44:50;4.30;99.90
38428;DHT22;24211;49.980;19.776;2023-03-05T09:50:43;4.50;99.90
38428;DHT22;24211;49.980;19.776;2023-03-05T09:56:32;4.60;99.90
38428;DHT22;24211;49.980;19.776;2023-03-05T09:59:38;4.60;99.90
38428;DHT22;24211;49.980;19.776;2023-03-05T10:02:30;4.70;99.90
38428;DHT22;24211;49.980;19.776;2023-03-05T10:05:16;4.80;99.90
38428;DHT22;24211;49.980;19.776;2023-03-05T10:08:04;4.80;99.90
38428;DHT22;24211;49.980;19.776;2023-03-05T10:10:43;5.00;99.90
38428;DHT22;24211;49.980;19.776;2023-03-05T10:18:53;5.20;99.90
38428;DHT22;24211;49.980;19.776;2023-03-05T10:24:47;5.30;99.90
38428;DHT22;24211;49.980;19.776;2023-03-05T10:27:54;5.40;99.90
38428;DHT22;24211;49.980;19.776;2023-03-05T10:33:23;5.60;99.90
38428;DHT22;24211;49.980;19.776;2023-03-05T10:36:26;5.50;99.90
38428;DHT22;24211;49.980;19.776;2023-03-05T10:45:29;5.60;99.90
38428;DHT22;24211;49.980;19.776;2023-03-05T10:48:17;5.60;99.90
38428;DHT22;24211;49.980;19.776;2023-03-05T10:50:53;5.60;99.90
38428;DHT22;24211;49.980;19.776;2023-03-05T10:53:32;5.60;99.90
38428;DHT22;24211;49.980;19.776;2023-03-05T10:56:09;5.50;99.90
38428;DHT22;24211;49.980;19.776;2023-03-05T10:58:38;5.40;99.90
38428;DHT22;24211;49.980;19.776;2023-03-05T11:01:19;5.40;99.90
38428;DHT22;24211;49.980;19.776;2023-03-05T11:04:07;5.40;99.90
38428;DHT22;24211;49.980;19.776;2023-03-05T11:06:52;5.30;99.90
38428;DHT22;24211;49.980;19.776;2023-03-05T11:14:39;5.10;99.90
38428;DHT22;24211;49.980;19.776;2023-03-05T11:26:00;4.80;99.90
38428;DHT22;24211;49.980;19.776;2023-03-05T11:28:35;4.70;99.90
38428;DHT22;24211;49.980;19.776;2023-03-05T11:39:19;4.20;99.90
38428;DHT22;24211;49.980;19.776;2023-03-05T11:42:03;4.10;99.90
38428;DHT22;24211;49.980;19.776;2023-03-05T11:44:48;4.00;99.90
38428;DHT22;24211;49.980;19.776;2023-03-05T11:50:20;3.90;99.90
38428;DHT22;24211;49.980;19.776;2023-03-05T11:52:51;3.80;99.90
38428;DHT22;24211;49.980;19.776;2023-03-05T11:55:41;3.80;99.90
38428;DHT22;24211;49.980;19.776;2023-03-05T11:58:34;3.80;99.90
38428;DHT22;24211;49.980;19.776;2023-03-05T12:01:22;3.70;99.90
38428;DHT22;24211;49.980;19.776;2023-03-05T12:03:52;3.60;99.90
38428;DHT22;24211;49.980;19.776;2023-03-05T12:06:54;3.50;99.90
38428;DHT22;24211;49.980;19.776;2023-03-05T12:18:31;3.30;99.90
38428;DHT22;24211;49.980;19.776;2023-03-05T12:21:16;3.30;99.90
38428;DHT22;24211;49.980;19.776;2023-03-05T12:23:55;3.30;99.90
38428;DHT22;24211;49.980;19.776;2023-03-05T12:29:37;3.30;99.90
38428;DHT22;24211;49.980;19.776;2023-03-05T12:34:55;3.40;99.90
38428;DHT22;24211;49.980;19.776;2023-03-05T12:53:11;3.70;99.90
38428;DHT22;24211;49.980;19.776;2023-03-05T12:58:25;3.80;99.90
38428;DHT22;24211;49.980;19.776;2023-03-05T13:01:19;3.90;99.90
38428;DHT22;24211;49.980;19.776;2023-03-05T13:03:59;3.90;99.90
38428;DHT22;24211;49.980;19.776;2023-03-05T13:06:33;3.90;99.90
38428;DHT22;24211;49.980;19.776;2023-03-05T13:11:36;4.00;99.90
38428;DHT22;24211;49.980;19.776;2023-03-05T13:17:49;4.00;99.90
38428;DHT22;24211;49.980;19.776;2023-03-05T13:20:29;3.90;99.90
38428;DHT22;24211;49.980;19.776;2023-03-05T13:26:12;4.00;99.90
38428;DHT22;24211;49.980;19.776;2023-03-05T13:31:29;3.90;99.90
38428;DHT22;24211;49.980;19.776;2023-03-05T13:34:07;3.90;99.90
38428;DHT22;24211;49.980;19.776;2023-03-05T13:36:38;3.90;99.90
38428;DHT22;24211;49.980;19.776;2023-03-05T13:39:21;3.90;99.90
38428;DHT22;24211;49.980;19.776;2023-03-05T13:42:17;4.00;99.90
38428;DHT22;24211;49.980;19.776;2023-03-05T13:48:00;3.90;99.90
38428;DHT22;24211;49.980;19.776;2023-03-05T13:50:35;3.90;99.90
38428;DHT22;24211;49.980;19.776;2023-03-05T13:53:23;4.00;99.90
38428;DHT22;24211;49.980;19.776;2023-03-05T13:56:02;4.10;99.90
38428;DHT22;24211;49.980;19.776;2023-03-05T13:58:55;4.10;99.90
38428;DHT22;24211;49.980;19.776;2023-03-05T14:01:28;4.20;99.90
38428;DHT22;24211;49.980;19.776;2023-03-05T14:04:06;4.30;99.90
38428;DHT22;24211;49.980;19.776;2023-03-05T14:07:20;4.50;99.90
38428;DHT22;24211;49.980;19.776;2023-03-05T14:09:53;4.60;99.90
38428;DHT22;24211;49.980;19.776;2023-03-05T14:12:35;4.80;99.90
38428;DHT22;24211;49.980;19.776;2023-03-05T14:18:17;5.10;99.90
38428;DHT22;24211;49.980;19.776;2023-03-05T14:21:06;5.20;99.90
38428;DHT22;24211;49.980;19.776;2023-03-05T14:23:38;5.20;99.90
38428;DHT22;24211;49.980;19.776;2023-03-05T14:31:51;5.20;99.90
38428;DHT22;24211;49.980;19.776;2023-03-05T14:34:30;5.20;99.90
38428;DHT22;24211;49.980;19.776;2023-03-05T14:37:28;5.10;99.90
38428;DHT22;24211;49.980;19.776;2023-03-05T14:40:00;4.90;99.90
38428;DHT22;24211;49.980;19.776;2023-03-05T14:42:34;4.80;99.90
38428;DHT22;24211;49.980;19.776;2023-03-05T14:45:12;4.80;99.90
38428;DHT22;24211;49.980;19.776;2023-03-05T14:47:42;4.80;99.90
38428;DHT22;24211;49.980;19.776;2023-03-05T14:50:14;4.70;99.90
38428;DHT22;24211;49.980;19.776;2023-03-05T14:52:44;4.70;99.90
38428;DHT22;24211;49.980;19.776;2023-03-05T14:55:16;4.60;99.90
38428;DHT22;24211;49.980;19.776;2023-03-05T14:57:46;4.70;99.90
38428;DHT22;24211;49.980;19.776;2023-03-05T15:00:22;4.70;99.90
38428;DHT22;24211;49.980;19.776;2023-03-05T15:02:51;4.60;99.90
38428;DHT22;24211;49.980;19.776;2023-03-05T15:05:18;4.50;99.90
38428;DHT22;24211;49.980;19.776;2023-03-05T15:07:47;4.50;99.90
38428;DHT22;24211;49.980;19.776;2023-03-05T15:10:16;4.50;99.90
38428;DHT22;24211;49.980;19.776;2023-03-05T15:12:46;4.50;99.90
38428;DHT22;24211;49.980;19.776;2023-03-05T15:15:13;4.50;99.90
38428;DHT22;24211;49.980;19.776;2023-03-05T15:17:43;4.50;99.90
38428;DHT22;24211;49.980;19.776;2023-03-05T15:20:16;4.40;99.90
38428;DHT22;24211;49.980;19.776;2023-03-05T15:22:46;4.40;99.90
38428;DHT22;24211;49.980;19.776;2023-03-05T15:25:13;4.50;99.90
38428;DHT22;24211;49.980;19.776;2023-03-05T15:27:41;4.50;99.90
38428;DHT22;24211;49.980;19.776;2023-03-05T15:30:24;4.50;99.90
38428;DHT22;24211;49.980;19.776;2023-03-05T15:32:53;4.50;99.90
38428;DHT22;24211;49.980;19.776;2023-03-05T15:35:22;4.60;99.90
38428;DHT22;24211;49.980;19.776;2023-03-05T15:37:50;4.60;99.90
38428;DHT22;24211;49.980;19.776;2023-03-05T15:40:19;4.60;99.90
38428;DHT22;24211;49.980;19.776;2023-03-05T15:42:47;4.60;99.90
38428;DHT22;24211;49.980;19.776;2023-03-05T15:45:15;4.60;99.90
38428;DHT22;24211;49.980;19.776;2023-03-05T15:47:42;4.70;99.90
38428;DHT22;24211;49.980;19.776;2023-03-05T15:50:10;4.60;99.90
38428;DHT22;24211;49.980;19.776;2023-03-05T15:52:38;4.60;99.90
38428;DHT22;24211;49.980;19.776;2023-03-05T15:55:05;4.60;99.90
38428;DHT22;24211;49.980;19.776;2023-03-05T15:57:35;4.60;99.90
38428;DHT22;24211;49.980;19.776;2023-03-05T16:00:08;4.70;99.90
38428;DHT22;24211;49.980;19.776;2023-03-05T16:02:37;4.70;99.90
38428;DHT22;24211;49.980;19.776;2023-03-05T16:05:04;4.60;99.90
38428;DHT22;24211;49.980;19.776;2023-03-05T16:07:33;4.60;99.90
38428;DHT22;24211;49.980;19.776;2023-03-05T16:10:03;4.60;99.90
38428;DHT22;24211;49.980;19.776;2023-03-05T16:12:35;4.50;99.90
38428;DHT22;24211;49.980;19.776;2023-03-05T16:15:08;4.40;99.90
38428;DHT22;24211;49.980;19.776;2023-03-05T16:17:39;4.30;99.90
38428;DHT22;24211;49.980;19.776;2023-03-05T16:20:10;4.20;99.90
38428;DHT22;24211;49.980;19.776;2023-03-05T16:22:38;4.30;99.90
38428;DHT22;24211;49.980;19.776;2023-03-05T16:25:06;4.30;99.90
38428;DHT22;24211;49.980;19.776;2023-03-05T16:27:34;4.30;99.90
38428;DHT22;24211;49.980;19.776;2023-03-05T16:30:05;4.30;99.90
38428;DHT22;24211;49.980;19.776;2023-03-05T16:32:33;4.30;99.90
38428;DHT22;24211;49.980;19.776;2023-03-05T16:35:01;4.30;99.90
38428;DHT22;24211;49.980;19.776;2023-03-05T16:37:29;4.20;99.90
38428;DHT22;24211;49.980;19.776;2023-03-05T16:39:59;4.30;99.90
38428;DHT22;24211;49.980;19.776;2023-03-05T16:42:27;4.20;99.90
38428;DHT22;24211;49.980;19.776;2023-03-05T16:44:54;4.20;99.90
38428;DHT22;24211;49.980;19.776;2023-03-05T16:47:24;4.20;99.90
38428;DHT22;24211;49.980;19.776;2023-03-05T16:49:51;4.20;99.90
38428;DHT22;24211;49.980;19.776;2023-03-05T16:52:19;4.20;99.90
38428;DHT22;24211;49.980;19.776;2023-03-05T16:54:47;4.10;99.90
38428;DHT22;24211;49.980;19.776;2023-03-05T16:57:15;4.10;99.90
38428;DHT22;24211;49.980;19.776;2023-03-05T16:59:42;4.10;99.90
38428;DHT22;24211;49.980;19.776;2023-03-05T17:02:10;4.00;99.90
38428;DHT22;24211;49.980;19.776;2023-03-05T17:04:48;4.10;99.90
38428;DHT22;24211;49.980;19.776;2023-03-05T17:07:17;4.00;99.90
38428;DHT22;24211;49.980;19.776;2023-03-05T17:09:44;4.10;99.90
38428;DHT22;24211;49.980;19.776;2023-03-05T17:12:13;4.00;99.90
38428;DHT22;24211;49.980;19.776;2023-03-05T17:14:40;4.00;99.90
38428;DHT22;24211;49.980;19.776;2023-03-05T17:17:08;4.00;99.90
38428;DHT22;24211;49.980;19.776;2023-03-05T17:19:35;3.90;99.90
38428;DHT22;24211;49.980;19.776;2023-03-05T17:22:03;3.90;99.90
38428;DHT22;24211;49.980;19.776;2023-03-05T17:24:30;3.90;99.90
38428;DHT22;24211;49.980;19.776;2023-03-05T17:26:59;3.90;99.90
38428;DHT22;24211;49.980;19.776;2023-03-05T17:29:27;4.00;99.90
38428;DHT22;24211;49.980;19.776;2023-03-05T17:31:55;4.00;99.90
38428;DHT22;24211;49.980;19.776;2023-03-05T17:34:22;3.90;99.90
38428;DHT22;24211;49.980;19.776;2023-03-05T17:37:03;3.90;99.90
38428;DHT22;24211;49.980;19.776;2023-03-05T17:39:30;3.80;99.90
38428;DHT22;24211;49.980;19.776;2023-03-05T17:42:04;3.80;99.90
38428;DHT22;24211;49.980;19.776;2023-03-05T17:44:31;3.80;99.90
38428;DHT22;24211;49.980;19.776;2023-03-05T17:46:58;3.80;99.90
38428;DHT22;24211;49.980;19.776;2023-03-05T17:49:28;3.70;99.90
38428;DHT22;24211;49.980;19.776;2023-03-05T17:51:55;3.70;99.90
38428;DHT22;24211;49.980;19.776;2023-03-05T17:54:22;3.70;99.90